In Rescue
 
Open Full Screen Window  High Contrast Mode
August 20, 2019 7:42 AM EDT
Present Weather: Mist
Weather Information
Wind Direction
  ---
Wind Speed
  00 kt (0 mph)
Wind Gust
  00 kt (0 mph)
Altimeter
30.07 in
Visibility
5 SM
Temperature
21° C
70° F
Dewpoint
21° C
70° F
Humidity
100%
1hr Rain Fall
00.00 in.
24hr Rain Fall
00.00 in.
Sky Condition
Clear
MVFR

METAR KI69 201142Z AUTO 00000KT 5SM BR CLR 21/21 A3007 RMK AO2 T02140212

FAA Disclaimer: The data displayed is for advisory purposes only and is not to be used for flight planning or operations.